createdAt,value
2018-11-10T00:00:28.105Z,100273.36
2018-11-10T00:02:55.578Z,100268.30
2018-11-10T00:05:23.802Z,100275.31
2018-11-10T00:07:51.257Z,100271.65
2018-11-10T00:10:19.558Z,100265.03
2018-11-10T00:12:47.630Z,100267.72
2018-11-10T00:15:15.262Z,100264.77
2018-11-10T00:17:43.638Z,100261.25
2018-11-10T00:20:11.321Z,100255.98
2018-11-10T00:22:40.050Z,100257.41
2018-11-10T00:25:08.782Z,100243.16
2018-11-10T00:27:36.289Z,100243.96
2018-11-10T00:30:03.949Z,100248.16
2018-11-10T00:32:31.330Z,100248.28
2018-11-10T00:34:58.719Z,100245.62
2018-11-10T00:37:26.056Z,100244.37
2018-11-10T00:39:53.517Z,100248.27
2018-11-10T00:42:21.459Z,100242.84
2018-11-10T00:44:49.453Z,100242.42
2018-11-10T00:47:16.883Z,100239.29
2018-11-10T00:49:44.409Z,100240.13
2018-11-10T00:52:11.851Z,100237.78
2018-11-10T00:54:39.187Z,100245.41
2018-11-10T00:57:06.649Z,100240.23
2018-11-10T00:59:34.240Z,100245.75
2018-11-10T01:02:01.641Z,100239.20
2018-11-10T01:04:28.997Z,100235.86
2018-11-10T01:06:56.463Z,100228.88
2018-11-10T01:09:23.849Z,100227.25
2018-11-10T01:11:51.184Z,100233.50
2018-11-10T01:14:21.195Z,100225.78
2018-11-10T01:16:48.800Z,100218.39
2018-11-10T01:19:16.238Z,100218.08
2018-11-10T01:21:43.591Z,100223.92
2018-11-10T01:24:11.076Z,100222.06
2018-11-10T01:26:38.495Z,100222.95
2018-11-10T01:29:06.576Z,100219.42
2018-11-10T01:31:33.967Z,100216.47
2018-11-10T01:34:01.382Z,100214.75
2018-11-10T01:36:28.923Z,100213.36
2018-11-10T01:38:56.240Z,100207.70
2018-11-10T01:41:23.610Z,100202.58
2018-11-10T01:43:50.940Z,100200.24
2018-11-10T01:46:18.324Z,100194.81
2018-11-10T01:48:45.655Z,100184.31
2018-11-10T01:51:13.042Z,100181.82
2018-11-10T01:53:40.379Z,100173.59
2018-11-10T01:56:07.836Z,100163.36
2018-11-10T01:58:35.222Z,100167.02
2018-11-10T02:01:02.586Z,100166.57
2018-11-10T02:03:30.027Z,100163.67
2018-11-10T02:05:57.388Z,100165.91
2018-11-10T02:08:24.799Z,100159.33
2018-11-10T02:10:52.259Z,100143.59
2018-11-10T02:13:19.661Z,100157.34
2018-11-10T02:15:47.031Z,100150.34
2018-11-10T02:18:14.403Z,100149.05
2018-11-10T02:20:41.769Z,100137.20
2018-11-10T02:23:09.133Z,100136.64
2018-11-10T02:25:36.557Z,100137.52
2018-11-10T02:28:03.981Z,100138.40
2018-11-10T02:30:31.361Z,100132.51
2018-11-10T02:32:59.700Z,100127.05
2018-11-10T02:35:27.115Z,100122.53
2018-11-10T02:37:54.489Z,100111.86
2018-11-10T02:40:21.829Z,100108.23
2018-11-10T02:42:49.302Z,100106.02
2018-11-10T02:45:17.226Z,100091.47
2018-11-10T02:47:45.149Z,100091.30
2018-11-10T02:50:12.574Z,100084.95
2018-11-10T02:52:40.110Z,100084.27
2018-11-10T02:55:08.371Z,100092.30
2018-11-10T02:57:35.718Z,100080.23
2018-11-10T03:00:03.049Z,100089.41
2018-11-10T03:02:30.378Z,100079.73
2018-11-10T03:04:57.788Z,100076.14
2018-11-10T03:07:25.183Z,100075.80
2018-11-10T03:09:52.594Z,100069.06
2018-11-10T03:12:19.896Z,100069.52
2018-11-10T03:14:47.308Z,100069.92
2018-11-10T03:17:15.290Z,100061.78
2018-11-10T03:19:42.785Z,100065.21
2018-11-10T03:22:10.136Z,100065.38
2018-11-10T03:24:37.538Z,100058.88
2018-11-10T03:27:06.465Z,100051.98
2018-11-10T03:29:33.868Z,100047.34
2018-11-10T03:32:01.237Z,100035.52
2018-11-10T03:34:28.778Z,100033.64
2018-11-10T03:36:56.259Z,100033.46
2018-11-10T03:39:23.611Z,100025.62
2018-11-10T03:41:51.009Z,100020.25
2018-11-10T03:44:18.349Z,100016.26
2018-11-10T03:46:45.686Z,100010.04
2018-11-10T03:49:13.141Z,100009.37
2018-11-10T03:51:42.727Z,100014.56
2018-11-10T03:54:10.221Z,100018.73
2018-11-10T03:56:37.685Z,100020.25
2018-11-10T03:59:05.544Z,100020.42
2018-11-10T04:01:32.884Z,100017.77
2018-11-10T04:04:00.256Z,100015.34
2018-11-10T04:06:27.604Z,100012.47
2018-11-10T04:08:54.941Z,100009.35
2018-11-10T04:11:22.324Z,100008.05
2018-11-10T04:13:49.783Z,100003.01
2018-11-10T04:16:17.216Z,99998.67
2018-11-10T04:18:44.538Z,99991.11
2018-11-10T04:21:12.022Z,99994.89
2018-11-10T04:23:39.757Z,99982.50
2018-11-10T04:26:13.975Z,99983.24
2018-11-10T04:28:41.630Z,99982.20
2018-11-10T04:31:09.020Z,99978.03
2018-11-10T04:33:36.448Z,99976.53
2018-11-10T04:36:04.042Z,99975.86
2018-11-10T04:38:31.410Z,99979.64
2018-11-10T04:40:58.792Z,99977.42
2018-11-10T04:43:26.118Z,99977.64
2018-11-10T04:45:53.534Z,99971.02
2018-11-10T04:48:21.055Z,99964.77
2018-11-10T04:50:48.482Z,99961.84
2018-11-10T04:53:15.843Z,99958.09
2018-11-10T04:55:43.253Z,99965.35
2018-11-10T04:58:10.744Z,99965.35
2018-11-10T05:00:38.191Z,99956.59
2018-11-10T05:03:05.729Z,99949.95
2018-11-10T05:05:33.154Z,99940.03
2018-11-10T05:08:00.657Z,99939.77
2018-11-10T05:10:28.024Z,99939.59
2018-11-10T05:12:55.395Z,99947.91
2018-11-10T05:15:22.833Z,99945.25
2018-11-10T05:17:50.853Z,99945.74
2018-11-10T05:20:18.205Z,99939.88
2018-11-10T05:22:45.527Z,99936.18
2018-11-10T05:25:12.876Z,99936.09
2018-11-10T05:27:40.520Z,99926.37
2018-11-10T05:30:08.521Z,99928.59
2018-11-10T05:32:35.961Z,99924.64
2018-11-10T05:35:03.474Z,99923.72
2018-11-10T05:37:30.859Z,99919.06
2018-11-10T05:39:58.217Z,99919.20
2018-11-10T05:42:25.620Z,99917.37
2018-11-10T05:44:52.978Z,99910.03
2018-11-10T05:47:20.314Z,99905.09
2018-11-10T05:49:47.714Z,99909.39
2018-11-10T05:52:15.102Z,99906.50
2018-11-10T05:54:42.550Z,99904.02
2018-11-10T05:57:09.994Z,99908.34
2018-11-10T05:59:38.024Z,99913.22
2018-11-10T06:02:06.029Z,99909.84
2018-11-10T06:04:33.607Z,99914.38
2018-11-10T06:07:00.976Z,99918.16
2018-11-10T06:09:28.376Z,99918.58
2018-11-10T06:11:55.816Z,99922.22
2018-11-10T06:14:23.248Z,99909.13
2018-11-10T06:16:50.600Z,99914.81
2018-11-10T06:19:18.054Z,99913.39
2018-11-10T06:21:45.396Z,99900.16
2018-11-10T06:24:12.773Z,99914.30
2018-11-10T06:26:40.266Z,99911.38
2018-11-10T06:29:07.662Z,99908.36
2018-11-10T06:31:35.110Z,99908.89
2018-11-10T06:34:02.462Z,99908.36
2018-11-10T06:36:29.826Z,99910.62
2018-11-10T06:38:57.191Z,99907.98
2018-11-10T06:41:24.731Z,99904.64
2018-11-10T06:43:52.007Z,99904.61
2018-11-10T06:46:21.003Z,99896.52
2018-11-10T06:48:48.777Z,99902.19
2018-11-10T06:51:16.363Z,99902.08
2018-11-10T06:53:43.729Z,99902.95
2018-11-10T06:56:11.211Z,99906.14
2018-11-10T06:58:39.739Z,99901.56
2018-11-10T07:01:07.133Z,99896.58
2018-11-10T07:03:34.583Z,99891.80
2018-11-10T07:06:01.972Z,99886.19
2018-11-10T07:08:29.348Z,99886.50
2018-11-10T07:11:04.506Z,99893.30
2018-11-10T07:13:32.098Z,99884.48
2018-11-10T07:15:59.432Z,99889.32
2018-11-10T07:18:27.343Z,99890.42
2018-11-10T07:20:54.685Z,99887.85
2018-11-10T07:23:22.172Z,99893.94
2018-11-10T07:25:49.620Z,99891.98
2018-11-10T07:28:17.072Z,99894.70
2018-11-10T07:30:45.003Z,99892.84
2018-11-10T07:33:12.352Z,99892.73
2018-11-10T07:35:39.717Z,99899.23
2018-11-10T07:38:07.181Z,99894.73
2018-11-10T07:40:34.706Z,99905.31
2018-11-10T07:43:02.226Z,99907.59
2018-11-10T07:45:30.676Z,99909.48
2018-11-10T07:47:58.085Z,99908.00
2018-11-10T07:50:25.800Z,99901.79
2018-11-10T07:52:53.872Z,99900.39
2018-11-10T07:55:21.621Z,99909.91
2018-11-10T07:57:48.963Z,99904.27
2018-11-10T08:00:17.481Z,99907.02
2018-11-10T08:02:45.008Z,99917.19
2018-11-10T08:05:13.741Z,99915.42
2018-11-10T08:07:42.705Z,99906.52
2018-11-10T08:10:10.718Z,99903.38
2018-11-10T08:12:38.771Z,99904.70
2018-11-10T08:15:08.709Z,99900.22
2018-11-10T08:17:36.333Z,99908.86
2018-11-10T08:20:03.845Z,99910.20
2018-11-10T08:22:31.245Z,99920.89
2018-11-10T08:24:58.764Z,99930.55
2018-11-10T08:27:26.302Z,99947.70
2018-11-10T08:29:53.660Z,99971.91
2018-11-10T08:32:21.158Z,99975.80
2018-11-10T08:34:49.186Z,99984.84
2018-11-10T08:37:16.572Z,99977.07
2018-11-10T08:39:44.082Z,99971.40
2018-11-10T08:42:11.630Z,99964.42
2018-11-10T08:44:39.041Z,99963.80
2018-11-10T08:47:07.040Z,99969.17
2018-11-10T08:49:34.714Z,99987.34
2018-11-10T08:52:02.240Z,99998.25
2018-11-10T08:54:29.766Z,99998.72
2018-11-10T08:56:57.356Z,99974.15
2018-11-10T08:59:24.874Z,99964.39
2018-11-10T09:01:52.278Z,99965.75
2018-11-10T09:04:19.738Z,99965.92
2018-11-10T09:06:47.132Z,99968.42
2018-11-10T09:09:14.588Z,99960.33
2018-11-10T09:11:42.107Z,99956.91
2018-11-10T09:14:09.737Z,99949.52
2018-11-10T09:16:37.206Z,99959.30
2018-11-10T09:19:05.500Z,99957.19
2018-11-10T09:21:33.078Z,99971.66
2018-11-10T09:24:00.463Z,99970.23
2018-11-10T09:26:27.848Z,99973.08
2018-11-10T09:28:55.270Z,99966.44
2018-11-10T09:31:22.667Z,99971.70
2018-11-10T09:33:50.791Z,99983.92
2018-11-10T09:36:18.295Z,99985.92
2018-11-10T09:38:46.392Z,99979.41
2018-11-10T09:41:14.562Z,99966.88
2018-11-10T09:43:41.961Z,99954.27
2018-11-10T09:46:09.283Z,99954.80
2018-11-10T09:48:36.674Z,99940.42
2018-11-10T09:51:04.156Z,99936.29
2018-11-10T09:53:31.973Z,99949.73
2018-11-10T09:55:59.363Z,99949.14
2018-11-10T09:58:26.915Z,99956.25
2018-11-10T10:00:54.478Z,99949.78
2018-11-10T10:03:21.811Z,99957.61
2018-11-10T10:05:49.361Z,99962.50
2018-11-10T10:08:16.816Z,99970.23
2018-11-10T10:10:44.195Z,99960.39
2018-11-10T10:13:11.612Z,99955.58
2018-11-10T10:15:39.172Z,99957.43
2018-11-10T10:18:06.661Z,99955.86
2018-11-10T10:20:34.025Z,99948.00
2018-11-10T10:23:01.529Z,99942.02
2018-11-10T10:25:28.905Z,99943.17
2018-11-10T10:27:56.362Z,99934.63
2018-11-10T10:30:24.974Z,99930.02
2018-11-10T10:32:52.618Z,99930.63
2018-11-10T10:35:20.193Z,99928.69
2018-11-10T10:37:48.783Z,99936.60
2018-11-10T10:40:16.376Z,99940.72
2018-11-10T10:42:45.985Z,99942.83
2018-11-10T10:45:16.730Z,99954.69
2018-11-10T10:47:44.462Z,99939.94
2018-11-10T10:50:14.163Z,99940.48
2018-11-10T10:52:41.750Z,99935.89
2018-11-10T10:55:10.516Z,99930.46
2018-11-10T10:57:38.651Z,99925.33
2018-11-10T11:00:14.267Z,99934.28
2018-11-10T11:02:47.990Z,99928.52
2018-11-10T11:05:18.173Z,99929.49
2018-11-10T11:07:46.119Z,99916.91
2018-11-10T11:10:13.439Z,99918.53
2018-11-10T11:12:40.877Z,99924.03
2018-11-10T11:15:08.343Z,99930.46
2018-11-10T11:17:35.948Z,99918.20
2018-11-10T11:20:03.689Z,99910.81
2018-11-10T11:22:31.123Z,99903.66
2018-11-10T11:24:58.515Z,99915.64
2018-11-10T11:27:26.168Z,99916.27
2018-11-10T11:29:53.716Z,99929.67
2018-11-10T11:32:21.177Z,99929.94
2018-11-10T11:34:48.763Z,99929.67
2018-11-10T11:37:16.551Z,99920.39
2018-11-10T11:39:44.170Z,99921.36
2018-11-10T11:42:12.293Z,99920.97
2018-11-10T11:44:40.424Z,99923.41
2018-11-10T11:47:07.662Z,99911.80
2018-11-10T11:49:35.082Z,99916.41
2018-11-10T11:52:02.465Z,99912.27
2018-11-10T11:54:29.827Z,99906.69
2018-11-10T11:56:57.250Z,99902.10
2018-11-10T11:59:24.875Z,99904.16
2018-11-10T12:01:52.214Z,99903.55
2018-11-10T12:04:19.718Z,99900.19
2018-11-10T12:06:47.050Z,99903.08
2018-11-10T12:09:14.438Z,99901.00
2018-11-10T12:11:41.958Z,99896.16
2018-11-10T12:14:09.393Z,99885.28
2018-11-10T12:16:36.773Z,99887.93
2018-11-10T12:19:04.721Z,99881.52
2018-11-10T12:21:32.091Z,99878.97
2018-11-10T12:23:59.454Z,99865.53
2018-11-10T12:26:26.813Z,99866.25
2018-11-10T12:28:54.820Z,99866.39
2018-11-10T12:31:22.279Z,99870.38
2018-11-10T12:33:49.908Z,99874.01
2018-11-10T12:36:17.302Z,99872.06
2018-11-10T12:38:44.661Z,99875.21
2018-11-10T12:41:12.175Z,99876.64
2018-11-10T12:43:39.799Z,99863.03
2018-11-10T12:46:07.289Z,99861.34
2018-11-10T12:48:34.905Z,99868.35
2018-11-10T12:51:02.634Z,99862.58
2018-11-10T12:53:29.981Z,99862.53
2018-11-10T12:55:57.425Z,99873.67
2018-11-10T12:58:25.101Z,99865.88
2018-11-10T13:00:52.677Z,99861.53
2018-11-10T13:03:20.113Z,99858.45
2018-11-10T13:05:47.587Z,99865.80
2018-11-10T13:08:15.139Z,99871.56
2018-11-10T13:10:42.524Z,99869.64
2018-11-10T13:13:09.891Z,99873.99
2018-11-10T13:15:37.257Z,99875.55
2018-11-10T13:18:04.727Z,99868.17
2018-11-10T13:20:32.258Z,99866.25
2018-11-10T13:23:00.296Z,99866.50
2018-11-10T13:25:27.872Z,99868.42
2018-11-10T13:27:55.462Z,99865.52
2018-11-10T13:30:23.003Z,99866.72
2018-11-10T13:32:50.405Z,99873.75
2018-11-10T13:35:17.895Z,99869.73
2018-11-10T13:37:45.225Z,99864.56
2018-11-10T13:40:12.624Z,99864.30
2018-11-10T13:42:40.098Z,99867.45
2018-11-10T13:45:09.408Z,99867.71
2018-11-10T13:47:36.919Z,99871.22
2018-11-10T13:52:44.427Z,99866.61
2018-11-10T13:55:13.492Z,99859.95
2018-11-10T13:57:40.836Z,99863.97
2018-11-10T14:00:11.680Z,99862.87
2018-11-10T14:02:39.201Z,99864.30
2018-11-10T14:05:06.718Z,99864.55
2018-11-10T14:07:34.279Z,99852.58
2018-11-10T14:10:01.789Z,99855.11
2018-11-10T14:12:29.454Z,99853.17
2018-11-10T14:14:56.937Z,99852.92
2018-11-10T14:17:24.291Z,99855.11
2018-11-10T14:19:51.796Z,99843.36
2018-11-10T14:22:19.293Z,99850.28
2018-11-10T14:24:46.747Z,99860.66
2018-11-10T14:27:14.145Z,99852.08
2018-11-10T14:29:41.658Z,99854.63
2018-11-10T14:32:09.184Z,99848.81
2018-11-10T14:34:36.563Z,99851.00
2018-11-10T14:37:03.987Z,99842.28
2018-11-10T14:39:31.543Z,99849.67
2018-11-10T14:41:58.925Z,99848.31
2018-11-10T14:44:26.252Z,99851.23
2018-11-10T14:46:53.624Z,99843.70
2018-11-10T14:49:21.094Z,99853.17
2018-11-10T14:51:48.550Z,99861.80
2018-11-10T14:54:16.043Z,99851.98
2018-11-10T14:56:43.406Z,99851.86
2018-11-10T14:59:10.769Z,99856.42
2018-11-10T15:01:38.230Z,99860.45
2018-11-10T15:04:05.940Z,99868.31
2018-11-10T15:06:33.362Z,99865.66
2018-11-10T15:09:00.994Z,99867.22
2018-11-10T15:11:28.486Z,99850.88
2018-11-10T15:13:56.031Z,99854.77
2018-11-10T15:16:23.468Z,99855.72
2018-11-10T15:18:50.833Z,99856.34
2018-11-10T15:21:18.303Z,99871.21
2018-11-10T15:23:46.666Z,99859.98
2018-11-10T15:26:14.216Z,99871.32
2018-11-10T15:28:41.702Z,99865.30
2018-11-10T15:31:09.080Z,99859.48
2018-11-10T15:33:36.434Z,99860.92
2018-11-10T15:36:03.837Z,99863.70
2018-11-10T15:38:31.259Z,99857.05
2018-11-10T15:40:59.147Z,99855.00
2018-11-10T15:43:26.530Z,99855.95
2018-11-10T15:45:54.043Z,99870.24
2018-11-10T15:48:21.399Z,99877.75
2018-11-10T15:50:48.872Z,99871.59
2018-11-10T15:53:16.326Z,99874.23
2018-11-10T15:55:43.751Z,99872.32
2018-11-10T15:58:11.117Z,99878.98
2018-11-10T16:00:38.511Z,99873.27
2018-11-10T16:03:05.959Z,99870.72
2018-11-10T16:05:33.405Z,99878.62
2018-11-10T16:08:01.137Z,99879.23
2018-11-10T16:10:28.676Z,99880.30
2018-11-10T16:12:56.047Z,99882.84
2018-11-10T16:15:23.551Z,99877.38
2018-11-10T16:17:51.808Z,99879.11
2018-11-10T16:20:20.138Z,99893.62
2018-11-10T16:22:49.063Z,99887.56
2018-11-10T16:25:17.106Z,99889.75
2018-11-10T16:27:44.815Z,99884.90
2018-11-10T16:30:13.864Z,99878.85
2018-11-10T16:32:41.266Z,99888.66
2018-11-10T16:35:08.990Z,99885.25
2018-11-10T16:37:36.494Z,99894.44
2018-11-10T16:40:06.104Z,99895.56
2018-11-10T16:42:33.514Z,99894.44
2018-11-10T16:45:00.962Z,99903.13
2018-11-10T16:47:28.360Z,99900.25
2018-11-10T16:49:55.805Z,99898.69
2018-11-10T16:52:23.267Z,99901.94
2018-11-10T16:54:50.859Z,99897.75
2018-11-10T16:57:18.533Z,99895.77
2018-11-10T16:59:46.084Z,99900.11
2018-11-10T17:02:13.591Z,99896.72
2018-11-10T17:04:41.040Z,99907.98
2018-11-10T17:07:08.431Z,99906.54
2018-11-10T17:09:35.905Z,99910.98
2018-11-10T17:12:03.451Z,99905.73
2018-11-10T17:14:30.894Z,99902.86
2018-11-10T17:16:58.320Z,99901.38
2018-11-10T17:19:25.743Z,99897.06
2018-11-10T17:21:53.290Z,99900.70
2018-11-10T17:24:20.601Z,99901.60
2018-11-10T17:26:48.000Z,99892.72
2018-11-10T17:29:15.423Z,99906.56
2018-11-10T17:31:42.941Z,99894.52
2018-11-10T17:34:10.439Z,99887.75
2018-11-10T17:36:37.839Z,99898.31
2018-11-10T17:39:07.447Z,99904.52
2018-11-10T17:41:34.964Z,99900.84
2018-11-10T17:44:02.617Z,99886.79
2018-11-10T17:46:30.127Z,99894.78
2018-11-10T17:48:57.577Z,99893.05
2018-11-10T17:51:25.279Z,99898.36
2018-11-10T17:53:52.655Z,99905.73
2018-11-10T17:56:20.071Z,99894.95
2018-11-10T17:58:47.932Z,99895.06
2018-11-10T18:01:15.234Z,99893.33
2018-11-10T18:03:42.687Z,99871.70
2018-11-10T18:06:10.692Z,99881.16
2018-11-10T18:08:38.184Z,99881.66
2018-11-10T18:11:06.120Z,99877.06
2018-11-10T18:13:33.487Z,99888.66
2018-11-10T18:16:00.946Z,99902.56
2018-11-10T18:18:28.524Z,99902.45
2018-11-10T18:20:55.949Z,99896.67
2018-11-10T18:23:23.496Z,99890.73
2018-11-10T18:25:51.011Z,99898.47
2018-11-10T18:28:18.402Z,99901.13
2018-11-10T18:30:45.743Z,99892.73
2018-11-10T18:33:13.474Z,99886.34
2018-11-10T18:35:40.883Z,99872.05
2018-11-10T18:38:08.282Z,99880.77
2018-11-10T18:40:35.647Z,99898.97
2018-11-10T18:43:03.101Z,99909.62
2018-11-10T18:45:30.533Z,99897.14
2018-11-10T18:47:58.052Z,99897.48
2018-11-10T18:50:25.485Z,99899.05
2018-11-10T18:52:52.913Z,99888.29
2018-11-10T18:55:20.314Z,99888.91
2018-11-10T18:57:48.160Z,99886.22
2018-11-10T19:00:16.780Z,99881.45
2018-11-10T19:02:44.627Z,99886.45
2018-11-10T19:05:13.340Z,99887.27
2018-11-10T19:07:40.900Z,99881.28
2018-11-10T19:10:10.464Z,99887.18
2018-11-10T19:12:38.269Z,99887.58
2018-11-10T19:15:08.369Z,99883.79
2018-11-10T19:17:35.801Z,99883.56
2018-11-10T19:20:03.149Z,99877.80
2018-11-10T19:22:31.269Z,99887.92
2018-11-10T19:24:58.806Z,99894.47
2018-11-10T19:27:26.244Z,99897.23
2018-11-10T19:29:53.768Z,99892.07
2018-11-10T19:32:21.209Z,99899.70
2018-11-10T19:34:48.962Z,99906.33
2018-11-10T19:37:16.676Z,99905.61
2018-11-10T19:39:44.109Z,99911.48
2018-11-10T19:42:11.501Z,99917.31
2018-11-10T19:44:39.037Z,99917.72
2018-11-10T19:47:06.300Z,99918.69
2018-11-10T19:49:33.849Z,99917.58
2018-11-10T19:52:01.324Z,99914.41
2018-11-10T19:54:28.781Z,99911.84
2018-11-10T19:56:56.929Z,99922.54
2018-11-10T19:59:24.303Z,99923.30
2018-11-10T20:01:52.077Z,99918.49
2018-11-10T20:04:19.517Z,99921.88
2018-11-10T20:06:47.575Z,99922.48
2018-11-10T20:09:14.903Z,99907.45
2018-11-10T20:11:42.436Z,99907.45
2018-11-10T20:14:10.931Z,99911.45
2018-11-10T20:16:38.308Z,99906.59
2018-11-10T20:19:05.759Z,99918.09
2018-11-10T20:21:33.591Z,99924.98
2018-11-10T20:24:01.192Z,99916.91
2018-11-10T20:26:28.591Z,99910.01
2018-11-10T20:28:56.073Z,99914.52
2018-11-10T20:31:23.537Z,99916.61
2018-11-10T20:33:57.758Z,99918.85
2018-11-10T20:36:25.460Z,99914.05
2018-11-10T20:38:53.192Z,99909.87
2018-11-10T20:41:20.648Z,99910.63
2018-11-10T20:43:48.096Z,99911.84
2018-11-10T20:46:15.756Z,99899.28
2018-11-10T20:48:43.142Z,99909.54
2018-11-10T20:51:10.828Z,99905.61
2018-11-10T20:53:38.210Z,99910.16
2018-11-10T20:56:05.782Z,99917.23
2018-11-10T20:58:33.943Z,99919.36
2018-11-10T21:01:01.455Z,99917.89
2018-11-10T21:03:30.166Z,99919.58
2018-11-10T21:05:57.563Z,99918.19
2018-11-10T21:08:25.015Z,99910.94
2018-11-10T21:10:53.140Z,99925.50
2018-11-10T21:13:20.614Z,99921.26
2018-11-10T21:15:48.031Z,99914.41
2018-11-10T21:18:15.591Z,99909.55
2018-11-10T21:20:43.131Z,99910.41
2018-11-10T21:23:10.618Z,99909.77
2018-11-10T21:25:37.997Z,99911.33
2018-11-10T21:28:05.570Z,99910.14
2018-11-10T21:30:32.990Z,99913.75
2018-11-10T21:33:00.473Z,99917.22
2018-11-10T21:35:27.943Z,99908.95
2018-11-10T21:37:55.580Z,99913.17
2018-11-10T21:40:23.029Z,99915.02
2018-11-10T21:42:50.391Z,99909.61
2018-11-10T21:45:18.789Z,99899.17
2018-11-10T21:47:46.675Z,99903.58
2018-11-10T21:50:16.260Z,99898.26
2018-11-10T21:52:44.451Z,99889.77
2018-11-10T21:55:13.361Z,99892.49
2018-11-10T21:57:41.511Z,99888.59
2018-11-10T22:00:11.101Z,99884.52
2018-11-10T22:02:39.288Z,99888.25
2018-11-10T22:05:07.310Z,99885.69
2018-11-10T22:07:34.935Z,99887.42
2018-11-10T22:10:02.553Z,99893.14
2018-11-10T22:12:29.913Z,99885.13
2018-11-10T22:14:57.442Z,99881.95
2018-11-10T22:17:24.931Z,99884.31
2018-11-10T22:19:52.476Z,99878.44
2018-11-10T22:22:20.020Z,99885.94
2018-11-10T22:24:47.454Z,99886.05
2018-11-10T22:27:14.826Z,99896.42
2018-11-10T22:29:42.290Z,99886.15
2018-11-10T22:32:09.631Z,99887.27
2018-11-10T22:34:37.026Z,99886.59
2018-11-10T22:37:04.486Z,99882.62
2018-11-10T22:39:31.858Z,99882.94
2018-11-10T22:41:59.323Z,99879.66
2018-11-10T22:44:26.760Z,99879.00
2018-11-10T22:46:54.238Z,99878.12
2018-11-10T22:49:21.626Z,99880.94
2018-11-10T22:51:48.948Z,99873.67
2018-11-10T22:54:16.436Z,99872.70
2018-11-10T22:56:43.947Z,99875.98
2018-11-10T22:59:11.464Z,99874.55
2018-11-10T23:01:38.945Z,99876.88
2018-11-10T23:04:06.987Z,99870.16
2018-11-10T23:06:34.376Z,99869.73
2018-11-10T23:09:02.416Z,99865.41
2018-11-10T23:11:29.823Z,99864.91
2018-11-10T23:13:57.267Z,99860.62
2018-11-10T23:16:24.699Z,99865.89
2018-11-10T23:18:52.063Z,99865.47
2018-11-10T23:21:19.557Z,99872.09
2018-11-10T23:23:46.968Z,99861.34
2018-11-10T23:26:14.471Z,99856.02
2018-11-10T23:28:41.946Z,99860.44
2018-11-10T23:31:09.304Z,99866.17
2018-11-10T23:33:37.257Z,99868.17
2018-11-10T23:36:04.724Z,99872.89
2018-11-10T23:38:32.066Z,99882.98
2018-11-10T23:40:59.551Z,99876.95
2018-11-10T23:43:27.040Z,99876.41
2018-11-10T23:45:54.396Z,99874.65
2018-11-10T23:48:21.751Z,99870.38
2018-11-10T23:50:49.113Z,99870.73
2018-11-10T23:53:20.554Z,99879.73
2018-11-10T23:55:48.236Z,99878.85
2018-11-10T23:58:16.221Z,99872.13
